createdAt,value
2022-10-09T00:40:45.967Z,99.90
2022-10-09T00:44:00.583Z,99.90
2022-10-09T00:46:45.511Z,99.90
2022-10-09T00:49:28.327Z,99.90
2022-10-09T00:52:02.100Z,99.90
2022-10-09T00:54:33.886Z,99.90
2022-10-09T00:57:02.283Z,99.90
2022-10-09T00:59:30.426Z,99.90
2022-10-09T01:01:58.059Z,99.90
2022-10-09T01:04:25.894Z,99.90
2022-10-09T01:06:58.910Z,99.90
2022-10-09T01:09:41.058Z,99.90
2022-10-09T01:12:20.245Z,99.90
2022-10-09T01:15:07.786Z,99.90
2022-10-09T01:18:11.902Z,99.90
2022-10-09T01:20:51.131Z,99.90
2022-10-09T01:23:38.300Z,99.90
2022-10-09T01:26:37.670Z,99.90
2022-10-09T01:29:11.765Z,99.90
2022-10-09T01:31:48.599Z,99.90
2022-10-09T01:34:19.397Z,99.90
2022-10-09T01:36:47.953Z,99.90
2022-10-09T01:39:23.722Z,99.90
2022-10-09T01:41:54.342Z,99.90
2022-10-09T01:44:31.461Z,99.90
2022-10-09T01:46:59.930Z,99.90
2022-10-09T01:49:49.771Z,99.90
2022-10-09T01:52:42.669Z,99.90
2022-10-09T01:55:51.497Z,99.90
2022-10-09T01:58:32.805Z,99.90
2022-10-09T02:01:11.115Z,99.90
2022-10-09T02:03:43.202Z,99.90
2022-10-09T02:06:14.755Z,99.90
2022-10-09T02:08:47.045Z,99.90
2022-10-09T02:11:15.170Z,99.90
2022-10-09T02:13:45.012Z,99.90
2022-10-09T02:16:37.757Z,99.90
2022-10-09T02:19:17.224Z,99.90
2022-10-09T02:21:59.798Z,99.90
2022-10-09T02:24:28.644Z,99.90
2022-10-09T02:26:57.898Z,99.90
2022-10-09T02:29:25.758Z,99.90
2022-10-09T02:31:53.112Z,99.90
2022-10-09T02:34:21.115Z,99.90
2022-10-09T02:36:49.073Z,99.90
2022-10-09T02:39:16.901Z,99.90
2022-10-09T02:41:44.079Z,99.90
2022-10-09T02:44:11.442Z,99.90
2022-10-09T02:46:39.035Z,99.90
2022-10-09T02:49:07.902Z,99.90
2022-10-09T02:51:35.150Z,99.90
2022-10-09T02:54:04.881Z,99.90
2022-10-09T02:56:37.949Z,99.90
2022-10-09T02:59:07.017Z,99.90
2022-10-09T03:01:35.302Z,99.90
2022-10-09T03:04:04.210Z,99.90
2022-10-09T03:06:32.087Z,99.90
2022-10-09T03:08:59.655Z,99.90
2022-10-09T03:11:27.524Z,99.90
2022-10-09T03:13:58.363Z,99.90
2022-10-09T03:16:26.800Z,99.90
2022-10-09T03:23:53.721Z,99.90
2022-10-09T03:26:25.689Z,99.90
2022-10-09T03:28:54.774Z,99.90
2022-10-09T03:34:13.172Z,99.90
2022-10-09T03:36:42.253Z,99.90
2022-10-09T03:39:11.561Z,99.90
2022-10-09T03:41:38.966Z,99.90
2022-10-09T03:44:06.893Z,99.90
2022-10-09T03:46:37.354Z,99.90
2022-10-09T03:54:17.489Z,99.90
2022-10-09T04:06:02.308Z,99.90
2022-10-09T05:28:00.371Z,99.90
2022-10-09T05:30:27.818Z,99.90
2022-10-09T05:32:58.942Z,99.90
2022-10-09T05:35:37.219Z,99.90
2022-10-09T05:38:07.191Z,99.90
2022-10-09T05:40:34.277Z,99.90
2022-10-09T05:43:02.574Z,99.90
2022-10-09T05:45:31.460Z,99.90
2022-10-09T05:48:08.804Z,99.90
2022-10-09T05:56:14.430Z,99.90
2022-10-09T05:58:43.734Z,99.90
2022-10-09T06:01:11.391Z,99.90
2022-10-09T06:03:39.022Z,99.90
2022-10-09T06:06:08.979Z,99.90
2022-10-09T06:13:51.149Z,99.90
2022-10-09T06:16:26.724Z,99.90
2022-10-09T06:19:08.104Z,99.90
2022-10-09T06:21:35.966Z,99.90
2022-10-09T06:34:30.786Z,99.90
2022-10-09T06:37:23.412Z,99.90
2022-10-09T06:39:52.827Z,99.90
2022-10-09T06:42:46.293Z,99.90
2022-10-09T06:45:17.657Z,99.90
2022-10-09T06:47:45.086Z,99.90
2022-10-09T06:50:12.163Z,99.90
2022-10-09T06:52:39.698Z,99.90
2022-10-09T06:55:13.433Z,99.90
2022-10-09T07:17:47.452Z,99.90
2022-10-09T07:20:18.272Z,99.90
2022-10-09T07:22:45.600Z,99.90
2022-10-09T07:25:12.752Z,99.90
2022-10-09T07:33:38.731Z,99.90
2022-10-09T07:37:30.104Z,99.90
2022-10-09T07:45:22.362Z,99.90
2022-10-09T07:47:50.004Z,99.90
2022-10-09T07:50:17.077Z,99.90
2022-10-09T08:03:22.286Z,99.90
2022-10-09T08:05:56.666Z,99.90
2022-10-09T08:08:23.871Z,99.90
2022-10-09T08:10:51.682Z,99.90
2022-10-09T08:13:19.049Z,99.90
2022-10-09T08:15:46.204Z,99.90
2022-10-09T08:18:14.025Z,99.90
2022-10-09T08:25:18.717Z,99.90
2022-10-09T08:36:57.956Z,99.90
2022-10-09T08:39:25.639Z,99.90
2022-10-09T08:41:57.654Z,99.90
2022-10-09T08:44:49.691Z,99.90
2022-10-09T08:47:29.991Z,99.90
2022-10-09T08:50:27.642Z,99.90
2022-10-09T08:53:08.512Z,99.90
2022-10-09T08:55:59.428Z,99.90
2022-10-09T08:58:34.480Z,99.90
2022-10-09T09:01:43.334Z,99.90
2022-10-09T09:04:59.328Z,99.90
2022-10-09T09:08:48.507Z,99.90
2022-10-09T09:11:44.046Z,99.90
2022-10-09T09:15:25.440Z,99.90
2022-10-09T09:18:37.639Z,99.90
2022-10-09T09:21:42.570Z,99.90
2022-10-09T09:29:15.814Z,99.90
2022-10-09T09:31:49.574Z,99.90
2022-10-09T09:34:42.053Z,99.90
2022-10-09T09:37:13.339Z,99.90
2022-10-09T09:42:31.158Z,99.90
2022-10-09T09:45:05.650Z,99.90
2022-10-09T09:47:59.902Z,99.90
2022-10-09T09:50:50.412Z,99.90
2022-10-09T09:53:31.781Z,99.90
2022-10-09T09:56:20.137Z,99.90
2022-10-09T09:58:55.285Z,99.90
2022-10-09T10:01:29.550Z,99.90
2022-10-09T10:04:01.242Z,99.90
2022-10-09T10:06:43.526Z,99.90
2022-10-09T10:09:16.818Z,99.90
2022-10-09T10:11:58.622Z,99.90
2022-10-09T10:14:27.418Z,99.90
2022-10-09T10:16:58.902Z,99.90
2022-10-09T10:19:34.992Z,99.90
2022-10-09T10:22:25.000Z,99.90
2022-10-09T10:33:29.611Z,99.90
2022-10-09T10:36:01.428Z,99.90
2022-10-09T10:39:02.295Z,99.90
2022-10-09T10:41:45.155Z,99.90
2022-10-09T10:52:32.560Z,99.90
2022-10-09T10:55:54.823Z,99.90
2022-10-09T10:59:11.780Z,99.90
2022-10-09T11:02:02.750Z,99.90
2022-10-09T11:04:55.401Z,99.90
2022-10-09T11:07:33.815Z,99.90
2022-10-09T11:12:47.752Z,99.90
2022-10-09T11:14:25.757Z,99.90
2022-10-09T11:17:20.121Z,99.90
2022-10-09T11:24:48.781Z,99.90
2022-10-09T11:27:48.829Z,99.90
2022-10-09T11:30:18.389Z,99.90
2022-10-09T11:33:38.469Z,99.90
2022-10-09T11:39:33.150Z,99.90
2022-10-09T11:52:28.946Z,99.90
2022-10-09T12:01:05.073Z,99.90
2022-10-09T12:03:39.482Z,99.90
2022-10-09T12:06:14.746Z,98.70
2022-10-09T12:09:19.495Z,98.00
2022-10-09T12:12:07.314Z,98.40
2022-10-09T12:14:38.845Z,99.90
2022-10-09T12:17:51.713Z,99.70
2022-10-09T12:26:08.776Z,98.50
2022-10-09T12:28:51.281Z,97.80
2022-10-09T12:31:29.720Z,96.70
2022-10-09T12:34:17.548Z,96.60
2022-10-09T12:36:45.458Z,97.10
2022-10-09T12:43:55.734Z,97.10
2022-10-09T12:46:49.955Z,98.00
2022-10-09T12:54:03.384Z,96.80
2022-10-09T12:56:35.827Z,96.00
2022-10-09T12:59:09.438Z,96.00
2022-10-09T13:06:27.111Z,95.70
2022-10-09T13:09:03.197Z,94.60
2022-10-09T13:12:26.284Z,94.60
2022-10-09T13:15:41.503Z,94.10
2022-10-09T13:20:07.238Z,93.00
2022-10-09T13:22:35.945Z,92.80
2022-10-09T13:25:06.572Z,93.20
